X  Fechar Metar - Info de Aeroporto     LPMT Montijo Air Base
Temperatura
20°C Temperatura
17°C Ptº Orvalho
83% Humidade



Vento
8 KM/H
5 MPH
2 M/S
4 NÓS



330°
NNO
Condições Atuais

Parcialmente Nublado Parcialmente Nublado
Pressão 1017.92 (hPa) - 30.06 (inHg)
Visibilidade 6.2 (milha) - 10 (km)
Aeroporto
Código-Aeroporto LPMT

Localização: Montijo Air Base
Distância: 6 (km)

Metar:
LPMT 040200Z 33004KT 280V030 9999 FEW010 SCT015 20/17 Q1018

Hora: 04-08-2021 03:00 BST